sensor_id;sensor_type;location;lat;lon;timestamp;pressure;altitude;pressure_sealevel;temperature;humidity
1832;BME280;1680;48.106;11.708;2023-02-28T00:00:36;95964.38;;;-1.60;89.89
1832;BME280;1680;48.106;11.708;2023-02-28T00:03:03;95972.63;;;-1.66;90.45
1832;BME280;1680;48.106;11.708;2023-02-28T00:05:31;95932.38;;;-1.93;90.80
1832;BME280;1680;48.106;11.708;2023-02-28T00:07:58;95974.69;;;-1.69;90.61
1832;BME280;1680;48.106;11.708;2023-02-28T00:10:28;95968.00;;;-1.53;89.95
1832;BME280;1680;48.106;11.708;2023-02-28T00:13:00;95965.88;;;-1.67;90.46
1832;BME280;1680;48.106;11.708;2023-02-28T00:15:28;95964.25;;;-1.68;89.87
1832;BME280;1680;48.106;11.708;2023-02-28T00:17:55;95963.44;;;-1.68;90.62
1832;BME280;1680;48.106;11.708;2023-02-28T00:20:22;95919.78;;;-1.96;90.44
1832;BME280;1680;48.106;11.708;2023-02-28T00:22:51;95962.50;;;-1.58;89.68
1832;BME280;1680;48.106;11.708;2023-02-28T00:25:21;95957.22;;;-1.66;90.43
1832;BME280;1680;48.106;11.708;2023-02-28T00:27:49;95948.84;;;-1.87;91.11
1832;BME280;1680;48.106;11.708;2023-02-28T00:30:20;95951.81;;;-1.82;91.01
1832;BME280;1680;48.106;11.708;2023-02-28T00:32:48;95951.56;;;-1.79;90.44
1832;BME280;1680;48.106;11.708;2023-02-28T00:35:16;95949.00;;;-1.79;91.27
1832;BME280;1680;48.106;11.708;2023-02-28T00:37:43;95954.41;;;-1.82;91.21
1832;BME280;1680;48.106;11.708;2023-02-28T00:40:11;95942.13;;;-1.88;91.65
1832;BME280;1680;48.106;11.708;2023-02-28T00:42:39;95949.00;;;-1.79;91.14
1832;BME280;1680;48.106;11.708;2023-02-28T00:45:07;95947.63;;;-1.83;90.96
1832;BME280;1680;48.106;11.708;2023-02-28T00:47:36;95943.44;;;-1.84;91.45
1832;BME280;1680;48.106;11.708;2023-02-28T00:50:04;95952.41;;;-1.88;91.32
1832;BME280;1680;48.106;11.708;2023-02-28T00:52:32;95952.50;;;-1.80;90.91
1832;BME280;1680;48.106;11.708;2023-02-28T00:54:59;95946.16;;;-1.94;91.73
1832;BME280;1680;48.106;11.708;2023-02-28T00:57:26;95959.16;;;-1.96;92.01
1832;BME280;1680;48.106;11.708;2023-02-28T00:59:54;95946.84;;;-2.02;91.58
1832;BME280;1680;48.106;11.708;2023-02-28T01:02:21;95948.31;;;-1.99;92.03
1832;BME280;1680;48.106;11.708;2023-02-28T01:04:50;95944.81;;;-1.98;92.08
1832;BME280;1680;48.106;11.708;2023-02-28T01:07:18;95941.59;;;-2.10;92.00
1832;BME280;1680;48.106;11.708;2023-02-28T01:09:45;95941.44;;;-2.08;92.59
1832;BME280;1680;48.106;11.708;2023-02-28T01:12:13;95937.00;;;-2.06;92.26
1832;BME280;1680;48.106;11.708;2023-02-28T01:14:40;95931.59;;;-2.13;92.72
1832;BME280;1680;48.106;11.708;2023-02-28T01:17:07;95936.72;;;-2.03;92.64
1832;BME280;1680;48.106;11.708;2023-02-28T01:19:35;95941.19;;;-2.05;92.47
1832;BME280;1680;48.106;11.708;2023-02-28T01:22:05;95935.38;;;-2.07;92.96
1832;BME280;1680;48.106;11.708;2023-02-28T01:24:32;95936.84;;;-2.05;92.70
1832;BME280;1680;48.106;11.708;2023-02-28T01:27:00;95922.94;;;-2.12;92.65
1832;BME280;1680;48.106;11.708;2023-02-28T01:29:27;95926.03;;;-2.08;92.76
1832;BME280;1680;48.106;11.708;2023-02-28T01:31:54;95919.94;;;-2.07;92.66
1832;BME280;1680;48.106;11.708;2023-02-28T01:34:22;95921.84;;;-2.09;92.49
1832;BME280;1680;48.106;11.708;2023-02-28T01:36:49;95916.19;;;-2.13;92.75
1832;BME280;1680;48.106;11.708;2023-02-28T01:39:18;95855.22;;;-2.39;92.44
1832;BME280;1680;48.106;11.708;2023-02-28T01:41:45;95919.00;;;-2.06;92.93
1832;BME280;1680;48.106;11.708;2023-02-28T01:44:56;95908.47;;;-2.03;92.63
1832;BME280;1680;48.106;11.708;2023-02-28T01:47:25;95911.16;;;-2.05;92.86
1832;BME280;1680;48.106;11.708;2023-02-28T01:49:54;95904.41;;;-2.15;92.76
1832;BME280;1680;48.106;11.708;2023-02-28T01:52:22;95904.97;;;-2.12;93.07
1832;BME280;1680;48.106;11.708;2023-02-28T01:54:54;95905.91;;;-2.03;92.73
1832;BME280;1680;48.106;11.708;2023-02-28T01:57:25;95911.84;;;-2.12;93.10
1832;BME280;1680;48.106;11.708;2023-02-28T01:59:58;95886.19;;;-2.41;93.65
1832;BME280;1680;48.106;11.708;2023-02-28T02:02:27;95916.44;;;-2.16;93.03
1832;BME280;1680;48.106;11.708;2023-02-28T02:04:59;95899.69;;;-2.20;93.87
1832;BME280;1680;48.106;11.708;2023-02-28T02:07:29;95914.66;;;-2.06;93.02
1832;BME280;1680;48.106;11.708;2023-02-28T02:10:05;95868.34;;;-2.33;93.26
1832;BME280;1680;48.106;11.708;2023-02-28T02:12:55;95887.25;;;-2.24;93.19
1832;BME280;1680;48.106;11.708;2023-02-28T02:15:33;95906.69;;;-2.12;93.04
1832;BME280;1680;48.106;11.708;2023-02-28T02:18:06;95910.22;;;-2.13;93.53
1832;BME280;1680;48.106;11.708;2023-02-28T02:26:58;95892.38;;;-2.24;94.06
1832;BME280;1680;48.106;11.708;2023-02-28T02:35:30;95903.88;;;-2.28;94.28
1832;BME280;1680;48.106;11.708;2023-02-28T02:38:03;95899.00;;;-2.31;94.62
1832;BME280;1680;48.106;11.708;2023-02-28T02:40:37;95904.00;;;-2.39;94.82
1832;BME280;1680;48.106;11.708;2023-02-28T02:43:09;95901.19;;;-2.36;94.54
1832;BME280;1680;48.106;11.708;2023-02-28T02:45:42;95895.63;;;-2.41;95.76
1832;BME280;1680;48.106;11.708;2023-02-28T02:48:16;95836.59;;;-2.79;95.67
1832;BME280;1680;48.106;11.708;2023-02-28T02:50:49;95890.38;;;-2.49;95.70
1832;BME280;1680;48.106;11.708;2023-02-28T02:53:19;95894.81;;;-2.51;95.87
1832;BME280;1680;48.106;11.708;2023-02-28T02:55:51;95895.63;;;-2.41;95.28
1832;BME280;1680;48.106;11.708;2023-02-28T02:58:23;95894.28;;;-2.45;95.73
1832;BME280;1680;48.106;11.708;2023-02-28T03:00:54;95875.09;;;-2.60;95.98
1832;BME280;1680;48.106;11.708;2023-02-28T03:03:23;95842.69;;;-2.80;96.35
1832;BME280;1680;48.106;11.708;2023-02-28T03:05:57;95896.28;;;-2.58;96.46
1832;BME280;1680;48.106;11.708;2023-02-28T03:08:26;95896.03;;;-2.55;96.69
1832;BME280;1680;48.106;11.708;2023-02-28T03:10:57;95888.88;;;-2.52;96.53
1832;BME280;1680;48.106;11.708;2023-02-28T03:13:52;95894.81;;;-2.51;96.77
1832;BME280;1680;48.106;11.708;2023-02-28T03:16:36;95893.63;;;-2.57;97.16
1832;BME280;1680;48.106;11.708;2023-02-28T03:19:28;95892.38;;;-2.53;97.50
1832;BME280;1680;48.106;11.708;2023-02-28T03:22:19;95895.22;;;-2.46;97.32
1832;BME280;1680;48.106;11.708;2023-02-28T03:24:51;95895.09;;;-2.54;97.32
1832;BME280;1680;48.106;11.708;2023-02-28T03:27:25;95852.13;;;-2.71;97.50
1832;BME280;1680;48.106;11.708;2023-02-28T03:29:58;95895.91;;;-2.44;97.16
1832;BME280;1680;48.106;11.708;2023-02-28T03:32:31;95882.94;;;-2.52;97.72
1832;BME280;1680;48.106;11.708;2023-02-28T03:35:03;95871.19;;;-2.64;97.84
1832;BME280;1680;48.106;11.708;2023-02-28T03:37:37;95897.41;;;-2.51;98.28
1832;BME280;1680;48.106;11.708;2023-02-28T03:40:09;95895.34;;;-2.57;97.86
1832;BME280;1680;48.106;11.708;2023-02-28T03:42:41;95894.28;;;-2.64;98.44
1832;BME280;1680;48.106;11.708;2023-02-28T03:45:12;95892.09;;;-2.59;98.80
1832;BME280;1680;48.106;11.708;2023-02-28T03:47:46;95886.97;;;-2.59;98.60
1832;BME280;1680;48.106;11.708;2023-02-28T03:50:18;95894.00;;;-2.52;98.66
1832;BME280;1680;48.106;11.708;2023-02-28T03:52:53;95901.84;;;-2.53;98.87
1832;BME280;1680;48.106;11.708;2023-02-28T03:55:28;95911.59;;;-2.47;98.90
1832;BME280;1680;48.106;11.708;2023-02-28T03:58:01;95898.88;;;-2.58;98.73
1832;BME280;1680;48.106;11.708;2023-02-28T04:00:35;95869.66;;;-2.76;98.71
1832;BME280;1680;48.106;11.708;2023-02-28T04:03:03;95905.09;;;-2.51;98.58
1832;BME280;1680;48.106;11.708;2023-02-28T04:05:31;95909.00;;;-2.57;98.39
1832;BME280;1680;48.106;11.708;2023-02-28T04:08:06;95914.53;;;-2.52;98.50
1832;BME280;1680;48.106;11.708;2023-02-28T04:10:34;95891.56;;;-2.72;98.29
1832;BME280;1680;48.106;11.708;2023-02-28T04:13:01;95919.97;;;-2.55;98.70
1832;BME280;1680;48.106;11.708;2023-02-28T04:15:28;95915.06;;;-2.67;98.60
1832;BME280;1680;48.106;11.708;2023-02-28T04:17:57;95928.84;;;-2.68;98.60
1832;BME280;1680;48.106;11.708;2023-02-28T04:20:24;95922.78;;;-2.67;99.18
1832;BME280;1680;48.106;11.708;2023-02-28T04:22:52;95937.34;;;-2.68;99.38
1832;BME280;1680;48.106;11.708;2023-02-28T04:25:20;95927.25;;;-2.60;99.40
1832;BME280;1680;48.106;11.708;2023-02-28T04:27:48;95920.50;;;-2.51;99.73
1832;BME280;1680;48.106;11.708;2023-02-28T04:30:16;95925.75;;;-2.53;99.54
1832;BME280;1680;48.106;11.708;2023-02-28T04:32:43;95929.25;;;-2.54;99.54
1832;BME280;1680;48.106;11.708;2023-02-28T04:35:10;95921.84;;;-2.47;99.93
1832;BME280;1680;48.106;11.708;2023-02-28T04:37:38;95922.94;;;-2.40;99.13
1832;BME280;1680;48.106;11.708;2023-02-28T04:40:06;95925.50;;;-2.40;99.17
1832;BME280;1680;48.106;11.708;2023-02-28T04:42:35;95927.13;;;-2.39;99.64
1832;BME280;1680;48.106;11.708;2023-02-28T04:45:03;95924.41;;;-2.38;99.51
1832;BME280;1680;48.106;11.708;2023-02-28T04:47:30;95904.25;;;-2.52;99.44
1832;BME280;1680;48.106;11.708;2023-02-28T04:49:58;95932.66;;;-2.34;99.54
1832;BME280;1680;48.106;11.708;2023-02-28T04:52:27;95935.63;;;-2.29;99.75
1832;BME280;1680;48.106;11.708;2023-02-28T04:54:54;95934.28;;;-2.24;99.65
1832;BME280;1680;48.106;11.708;2023-02-28T04:57:21;95939.97;;;-2.11;98.97
1832;BME280;1680;48.106;11.708;2023-02-28T04:59:50;95933.06;;;-2.10;98.58
1832;BME280;1680;48.106;11.708;2023-02-28T05:02:17;95937.25;;;-2.09;98.84
1832;BME280;1680;48.106;11.708;2023-02-28T05:04:46;95941.03;;;-2.04;98.69
1832;BME280;1680;48.106;11.708;2023-02-28T05:07:13;95944.53;;;-1.95;98.00
1832;BME280;1680;48.106;11.708;2023-02-28T05:09:41;95948.88;;;-1.96;98.79
1832;BME280;1680;48.106;11.708;2023-02-28T05:12:09;95952.41;;;-2.06;98.75
1832;BME280;1680;48.106;11.708;2023-02-28T05:14:36;95955.34;;;-2.01;99.19
1832;BME280;1680;48.106;11.708;2023-02-28T05:17:05;95956.03;;;-1.99;98.80
1832;BME280;1680;48.106;11.708;2023-02-28T05:19:32;95957.66;;;-1.98;99.65
1832;BME280;1680;48.106;11.708;2023-02-28T05:21:59;95963.31;;;-1.86;99.82
1832;BME280;1680;48.106;11.708;2023-02-28T05:24:27;95955.59;;;-1.86;99.67
1832;BME280;1680;48.106;11.708;2023-02-28T05:26:55;95960.47;;;-1.73;99.84
1832;BME280;1680;48.106;11.708;2023-02-28T05:29:22;95942.91;;;-1.78;99.18
1832;BME280;1680;48.106;11.708;2023-02-28T05:31:49;95952.63;;;-1.72;99.44
1832;BME280;1680;48.106;11.708;2023-02-28T05:34:18;95961.81;;;-1.60;98.20
1832;BME280;1680;48.106;11.708;2023-02-28T05:36:46;95940.44;;;-1.70;97.94
1832;BME280;1680;48.106;11.708;2023-02-28T05:39:13;95954.78;;;-1.58;98.36
1832;BME280;1680;48.106;11.708;2023-02-28T05:41:40;95961.25;;;-1.63;98.67
1832;BME280;1680;48.106;11.708;2023-02-28T05:44:08;95935.19;;;-1.78;99.20
1832;BME280;1680;48.106;11.708;2023-02-28T05:46:36;95957.47;;;-1.59;99.60
1832;BME280;1680;48.106;11.708;2023-02-28T05:49:04;95947.59;;;-1.54;98.47
1832;BME280;1680;48.106;11.708;2023-02-28T05:51:32;95953.66;;;-1.46;98.05
1832;BME280;1680;48.106;11.708;2023-02-28T05:54:02;95943.16;;;-1.62;98.32
1832;BME280;1680;48.106;11.708;2023-02-28T05:56:29;95955.81;;;-1.51;98.88
1832;BME280;1680;48.106;11.708;2023-02-28T05:58:56;95964.50;;;-1.52;98.70
1832;BME280;1680;48.106;11.708;2023-02-28T06:01:31;95965.31;;;-1.51;99.17
1832;BME280;1680;48.106;11.708;2023-02-28T06:04:00;95967.75;;;-1.59;98.89
1832;BME280;1680;48.106;11.708;2023-02-28T06:06:28;95969.38;;;-1.49;98.59
1832;BME280;1680;48.106;11.708;2023-02-28T06:08:58;95964.75;;;-1.55;98.89
1832;BME280;1680;48.106;11.708;2023-02-28T06:11:26;95976.22;;;-1.40;97.95
1832;BME280;1680;48.106;11.708;2023-02-28T06:13:55;95983.50;;;-1.26;97.07
1832;BME280;1680;48.106;11.708;2023-02-28T06:16:23;95980.69;;;-1.42;96.79
1832;BME280;1680;48.106;11.708;2023-02-28T06:18:50;95984.50;;;-1.36;97.64
1832;BME280;1680;48.106;11.708;2023-02-28T06:21:21;95976.09;;;-1.38;97.84
1832;BME280;1680;48.106;11.708;2023-02-28T06:23:48;95989.66;;;-1.36;98.26
1832;BME280;1680;48.106;11.708;2023-02-28T06:26:17;95985.03;;;-1.33;97.17
1832;BME280;1680;48.106;11.708;2023-02-28T06:28:44;95987.44;;;-1.31;97.42
1832;BME280;1680;48.106;11.708;2023-02-28T06:31:12;95992.28;;;-1.19;96.49
1832;BME280;1680;48.106;11.708;2023-02-28T06:33:41;95995.81;;;-1.20;97.86
1832;BME280;1680;48.106;11.708;2023-02-28T06:36:10;95985.25;;;-1.17;97.23
1832;BME280;1680;48.106;11.708;2023-02-28T06:38:38;95988.75;;;-1.08;96.71
1832;BME280;1680;48.106;11.708;2023-02-28T06:41:06;95994.19;;;-1.21;96.48
1832;BME280;1680;48.106;11.708;2023-02-28T06:43:38;96007.06;;;-1.21;96.55
1832;BME280;1680;48.106;11.708;2023-02-28T06:46:08;96007.06;;;-1.21;96.16
1832;BME280;1680;48.106;11.708;2023-02-28T06:48:36;96004.72;;;-1.14;96.58
1832;BME280;1680;48.106;11.708;2023-02-28T06:51:05;96006.88;;;-1.10;96.73
1832;BME280;1680;48.106;11.708;2023-02-28T06:53:32;96015.09;;;-0.97;96.37
1832;BME280;1680;48.106;11.708;2023-02-28T06:56:03;96010.63;;;-0.95;95.83
1832;BME280;1680;48.106;11.708;2023-02-28T06:58:32;96003.56;;;-0.93;95.43
1832;BME280;1680;48.106;11.708;2023-02-28T07:01:01;96012.25;;;-0.94;95.49
1832;BME280;1680;48.106;11.708;2023-02-28T07:03:29;96017.81;;;-0.98;95.26
1832;BME280;1680;48.106;11.708;2023-02-28T07:05:56;96018.34;;;-0.95;95.79
1832;BME280;1680;48.106;11.708;2023-02-28T07:08:24;96023.63;;;-0.97;95.94
1832;BME280;1680;48.106;11.708;2023-02-28T07:10:53;96028.53;;;-1.03;95.92
1832;BME280;1680;48.106;11.708;2023-02-28T07:13:21;96032.72;;;-0.93;95.63
1832;BME280;1680;48.106;11.708;2023-02-28T07:15:53;96033.38;;;-0.91;95.69
1832;BME280;1680;48.106;11.708;2023-02-28T07:18:22;96033.56;;;-0.75;95.26
1832;BME280;1680;48.106;11.708;2023-02-28T07:20:50;96023.00;;;-0.72;95.92
1832;BME280;1680;48.106;11.708;2023-02-28T07:23:17;96021.91;;;-0.69;95.42
1832;BME280;1680;48.106;11.708;2023-02-28T07:25:45;96025.72;;;-0.73;94.71
1832;BME280;1680;48.106;11.708;2023-02-28T07:28:12;96022.41;;;-0.56;94.28
1832;BME280;1680;48.106;11.708;2023-02-28T07:30:40;96028.56;;;-0.49;93.85
1832;BME280;1680;48.106;11.708;2023-02-28T07:33:07;96036.88;;;-0.55;93.82
1832;BME280;1680;48.106;11.708;2023-02-28T07:35:36;96031.06;;;-0.57;93.09
1832;BME280;1680;48.106;11.708;2023-02-28T07:38:04;96024.00;;;-0.55;94.09
1832;BME280;1680;48.106;11.708;2023-02-28T07:40:33;96025.13;;;-0.67;94.24
1832;BME280;1680;48.106;11.708;2023-02-28T07:43:01;96019.63;;;-0.45;92.70
1832;BME280;1680;48.106;11.708;2023-02-28T07:45:29;96012.66;;;-0.62;92.96
1832;BME280;1680;48.106;11.708;2023-02-28T07:47:58;96028.09;;;-0.62;93.49
1832;BME280;1680;48.106;11.708;2023-02-28T07:50:25;96019.16;;;-0.58;92.87
1832;BME280;1680;48.106;11.708;2023-02-28T07:52:56;96025.72;;;-0.73;93.76
1832;BME280;1680;48.106;11.708;2023-02-28T07:55:23;96021.81;;;-0.50;92.61
1832;BME280;1680;48.106;11.708;2023-02-28T07:57:50;96022.59;;;-0.40;92.78
1832;BME280;1680;48.106;11.708;2023-02-28T08:00:18;96025.56;;;-0.45;91.18
1832;BME280;1680;48.106;11.708;2023-02-28T08:02:45;96041.06;;;-0.27;90.09
1832;BME280;1680;48.106;11.708;2023-02-28T08:05:12;96032.50;;;-0.45;90.93
1832;BME280;1680;48.106;11.708;2023-02-28T08:07:40;96036.41;;;-0.41;92.10
1832;BME280;1680;48.106;11.708;2023-02-28T08:10:10;96036.66;;;-0.35;92.28
1832;BME280;1680;48.106;11.708;2023-02-28T08:12:37;96037.72;;;-0.37;91.39
1832;BME280;1680;48.106;11.708;2023-02-28T08:15:05;96033.34;;;-0.27;92.22
1832;BME280;1680;48.106;11.708;2023-02-28T08:17:32;96036.81;;;-0.19;91.73
1832;BME280;1680;48.106;11.708;2023-02-28T08:20:00;96039.34;;;0.08;89.95
1832;BME280;1680;48.106;11.708;2023-02-28T08:22:27;96037.78;;;-0.03;88.39
1832;BME280;1680;48.106;11.708;2023-02-28T08:24:54;96050.28;;;-0.07;88.76
1832;BME280;1680;48.106;11.708;2023-02-28T08:27:23;96047.41;;;-0.22;90.49
1832;BME280;1680;48.106;11.708;2023-02-28T08:29:50;96052.41;;;-0.20;89.39
1832;BME280;1680;48.106;11.708;2023-02-28T08:32:17;96049.50;;;-0.08;89.70
1832;BME280;1680;48.106;11.708;2023-02-28T08:34:45;96050.47;;;0.08;88.81
1832;BME280;1680;48.106;11.708;2023-02-28T08:37:12;96048.88;;;0.07;87.97
1832;BME280;1680;48.106;11.708;2023-02-28T08:39:39;96054.97;;;0.06;89.13
1832;BME280;1680;48.106;11.708;2023-02-28T08:42:06;96058.41;;;-0.03;89.72
1832;BME280;1680;48.106;11.708;2023-02-28T08:44:35;96063.72;;;-0.04;90.57
1832;BME280;1680;48.106;11.708;2023-02-28T08:47:03;96050.59;;;-0.10;89.70
1832;BME280;1680;48.106;11.708;2023-02-28T08:49:30;96063.28;;;0.00;89.52
1832;BME280;1680;48.106;11.708;2023-02-28T08:51:57;96069.69;;;-0.03;89.67
1832;BME280;1680;48.106;11.708;2023-02-28T08:54:24;96063.84;;;-0.05;89.72
1832;BME280;1680;48.106;11.708;2023-02-28T08:56:54;96064.06;;;0.01;90.15
1832;BME280;1680;48.106;11.708;2023-02-28T08:59:21;96068.38;;;0.10;90.10
1832;BME280;1680;48.106;11.708;2023-02-28T09:01:50;96065.38;;;0.14;88.95
1832;BME280;1680;48.106;11.708;2023-02-28T09:04:17;96071.97;;;0.17;88.52
1832;BME280;1680;48.106;11.708;2023-02-28T09:06:44;96068.81;;;0.23;88.75
1832;BME280;1680;48.106;11.708;2023-02-28T09:09:11;96072.59;;;0.28;88.71
1832;BME280;1680;48.106;11.708;2023-02-28T09:11:38;96075.38;;;0.17;87.94
1832;BME280;1680;48.106;11.708;2023-02-28T09:14:06;96011.34;;;-0.04;87.74
1832;BME280;1680;48.106;11.708;2023-02-28T09:16:33;96068.41;;;0.45;88.58
1832;BME280;1680;48.106;11.708;2023-02-28T09:19:02;96081.88;;;0.56;87.01
1832;BME280;1680;48.106;11.708;2023-02-28T09:21:29;96078.19;;;0.59;87.24
1832;BME280;1680;48.106;11.708;2023-02-28T09:23:57;96083.50;;;0.57;85.80
1832;BME280;1680;48.106;11.708;2023-02-28T09:26:26;96086.81;;;0.50;87.01
1832;BME280;1680;48.106;11.708;2023-02-28T09:28:54;96087.78;;;0.31;86.81
1832;BME280;1680;48.106;11.708;2023-02-28T09:31:25;96083.78;;;0.37;87.55
1832;BME280;1680;48.106;11.708;2023-02-28T09:33:55;96092.13;;;0.48;87.44
1832;BME280;1680;48.106;11.708;2023-02-28T09:36:25;96093.00;;;0.57;87.36
1832;BME280;1680;48.106;11.708;2023-02-28T09:38:53;96108.78;;;0.71;86.28
1832;BME280;1680;48.106;11.708;2023-02-28T09:41:22;96103.69;;;0.79;85.84
1832;BME280;1680;48.106;11.708;2023-02-28T09:43:53;96101.78;;;0.81;85.91
1832;BME280;1680;48.106;11.708;2023-02-28T09:46:32;96083.91;;;0.70;85.48
1832;BME280;1680;48.106;11.708;2023-02-28T09:49:02;96110.78;;;0.77;85.54
1832;BME280;1680;48.106;11.708;2023-02-28T09:51:37;96114.09;;;0.70;84.65
1832;BME280;1680;48.106;11.708;2023-02-28T09:54:13;96108.56;;;0.82;85.63
1832;BME280;1680;48.106;11.708;2023-02-28T09:56:44;96109.44;;;0.73;84.10
1832;BME280;1680;48.106;11.708;2023-02-28T09:59:22;96086.56;;;0.61;85.13
1832;BME280;1680;48.106;11.708;2023-02-28T10:01:58;96061.69;;;0.52;84.36
1832;BME280;1680;48.106;11.708;2023-02-28T10:04:39;96124.75;;;0.92;85.10
1832;BME280;1680;48.106;11.708;2023-02-28T10:07:18;96111.63;;;1.03;84.20
1832;BME280;1680;48.106;11.708;2023-02-28T10:09:52;96075.72;;;0.92;82.99
1832;BME280;1680;48.106;11.708;2023-02-28T10:12:20;96122.06;;;1.19;83.10
1832;BME280;1680;48.106;11.708;2023-02-28T10:14:51;96116.69;;;1.38;81.74
1832;BME280;1680;48.106;11.708;2023-02-28T10:17:21;96125.72;;;1.34;82.18
1832;BME280;1680;48.106;11.708;2023-02-28T10:19:58;96125.00;;;1.49;81.48
1832;BME280;1680;48.106;11.708;2023-02-28T10:22:33;96126.22;;;1.63;81.53
1832;BME280;1680;48.106;11.708;2023-02-28T10:25:08;96123.63;;;1.63;80.55
1832;BME280;1680;48.106;11.708;2023-02-28T10:27:43;96117.28;;;1.83;80.62
1832;BME280;1680;48.106;11.708;2023-02-28T10:30:11;96123.84;;;2.10;79.35
1832;BME280;1680;48.106;11.708;2023-02-28T10:32:40;96121.25;;;2.10;79.25
1832;BME280;1680;48.106;11.708;2023-02-28T10:35:15;96125.78;;;2.08;79.46
1832;BME280;1680;48.106;11.708;2023-02-28T10:37:45;96127.22;;;2.11;78.64
1832;BME280;1680;48.106;11.708;2023-02-28T10:40:27;96124.25;;;2.47;77.19
1832;BME280;1680;48.106;11.708;2023-02-28T10:42:56;96105.75;;;2.18;77.23
1832;BME280;1680;48.106;11.708;2023-02-28T10:45:25;96128.97;;;2.60;76.97
1832;BME280;1680;48.106;11.708;2023-02-28T10:47:55;96126.59;;;2.82;76.80
1832;BME280;1680;48.106;11.708;2023-02-28T10:50:28;96125.81;;;2.97;75.55
1832;BME280;1680;48.106;11.708;2023-02-28T10:53:12;96132.91;;;3.03;75.14
1832;BME280;1680;48.106;11.708;2023-02-28T10:55:41;96140.84;;;3.10;74.11
1832;BME280;1680;48.106;11.708;2023-02-28T10:58:20;96131.16;;;3.04;73.58
1832;BME280;1680;48.106;11.708;2023-02-28T11:00:49;96143.75;;;2.99;74.12
1832;BME280;1680;48.106;11.708;2023-02-28T11:03:29;96142.47;;;3.03;75.46
1832;BME280;1680;48.106;11.708;2023-02-28T11:05:57;96145.56;;;3.22;73.35
1832;BME280;1680;48.106;11.708;2023-02-28T11:08:26;96137.63;;;2.92;73.98
1832;BME280;1680;48.106;11.708;2023-02-28T11:10:56;96136.78;;;2.76;75.59
1832;BME280;1680;48.106;11.708;2023-02-28T11:13:29;96138.75;;;2.82;74.36
1832;BME280;1680;48.106;11.708;2023-02-28T11:15:59;96133.72;;;2.88;74.89
1832;BME280;1680;48.106;11.708;2023-02-28T11:18:29;96129.84;;;2.84;75.15
1832;BME280;1680;48.106;11.708;2023-02-28T11:20:59;96132.75;;;3.13;77.13
1832;BME280;1680;48.106;11.708;2023-02-28T11:23:30;96131.13;;;3.36;74.32
1832;BME280;1680;48.106;11.708;2023-02-28T11:26:01;96135.00;;;3.24;73.18
1832;BME280;1680;48.106;11.708;2023-02-28T11:28:32;96126.28;;;3.33;73.46
1832;BME280;1680;48.106;11.708;2023-02-28T11:31:03;96133.06;;;3.42;71.99
1832;BME280;1680;48.106;11.708;2023-02-28T11:33:31;96125.13;;;3.35;72.80
1832;BME280;1680;48.106;11.708;2023-02-28T11:36:02;96131.28;;;3.34;72.39
1832;BME280;1680;48.106;11.708;2023-02-28T11:38:34;96126.63;;;3.22;73.58
1832;BME280;1680;48.106;11.708;2023-02-28T11:41:13;96117.16;;;3.53;74.34
1832;BME280;1680;48.106;11.708;2023-02-28T11:43:57;96125.25;;;3.66;73.95
1832;BME280;1680;48.106;11.708;2023-02-28T11:46:35;96121.06;;;3.41;73.35
1832;BME280;1680;48.106;11.708;2023-02-28T11:49:16;96117.38;;;3.19;75.35
1832;BME280;1680;48.106;11.708;2023-02-28T11:51:53;96113.97;;;3.35;74.47
1832;BME280;1680;48.106;11.708;2023-02-28T11:54:31;96112.50;;;3.32;74.28
1832;BME280;1680;48.106;11.708;2023-02-28T11:57:09;96099.22;;;3.19;73.56
1832;BME280;1680;48.106;11.708;2023-02-28T11:59:51;96108.16;;;3.17;74.40
1832;BME280;1680;48.106;11.708;2023-02-28T12:02:25;96114.28;;;3.32;73.96
1832;BME280;1680;48.106;11.708;2023-02-28T12:05:13;96105.69;;;3.39;73.99
1832;BME280;1680;48.106;11.708;2023-02-28T12:07:50;96081.34;;;3.56;71.59
1832;BME280;1680;48.106;11.708;2023-02-28T12:10:24;96103.13;;;3.85;72.82
1832;BME280;1680;48.106;11.708;2023-02-28T12:13:02;96105.31;;;3.66;71.63
1832;BME280;1680;48.106;11.708;2023-02-28T12:15:54;96101.91;;;3.58;71.96
1832;BME280;1680;48.106;11.708;2023-02-28T12:18:35;96101.78;;;3.51;73.29
1832;BME280;1680;48.106;11.708;2023-02-28T12:21:13;96103.53;;;3.59;74.43
1832;BME280;1680;48.106;11.708;2023-02-28T12:24:01;96089.63;;;3.44;72.55
1832;BME280;1680;48.106;11.708;2023-02-28T12:26:37;96095.81;;;3.35;74.69
1832;BME280;1680;48.106;11.708;2023-02-28T12:29:13;96100.16;;;3.50;75.37
1832;BME280;1680;48.106;11.708;2023-02-28T12:31:45;96099.28;;;3.74;74.27
1832;BME280;1680;48.106;11.708;2023-02-28T12:34:17;96086.25;;;3.89;73.80
1832;BME280;1680;48.106;11.708;2023-02-28T12:36:47;96091.44;;;3.89;73.01
1832;BME280;1680;48.106;11.708;2023-02-28T12:39:20;96073.28;;;4.20;70.96
1832;BME280;1680;48.106;11.708;2023-02-28T12:41:54;96083.34;;;4.23;71.65
1832;BME280;1680;48.106;11.708;2023-02-28T12:44:27;96070.41;;;4.15;70.52
1832;BME280;1680;48.106;11.708;2023-02-28T12:46:59;96062.47;;;3.78;69.91
1832;BME280;1680;48.106;11.708;2023-02-28T12:49:33;96068.47;;;3.79;71.83
1832;BME280;1680;48.106;11.708;2023-02-28T12:52:02;96067.97;;;3.83;71.75
1832;BME280;1680;48.106;11.708;2023-02-28T12:54:35;96070.22;;;3.86;72.96
1832;BME280;1680;48.106;11.708;2023-02-28T12:57:11;96076.59;;;3.68;71.62
1832;BME280;1680;48.106;11.708;2023-02-28T12:59:43;96074.38;;;3.65;71.54
1832;BME280;1680;48.106;11.708;2023-02-28T13:02:40;96073.72;;;3.63;72.81
1832;BME280;1680;48.106;11.708;2023-02-28T13:08:48;96072.22;;;3.68;71.53
1832;BME280;1680;48.106;11.708;2023-02-28T13:11:28;96077.47;;;3.52;72.39
1832;BME280;1680;48.106;11.708;2023-02-28T13:14:02;96079.25;;;3.52;72.24
1832;BME280;1680;48.106;11.708;2023-02-28T13:19:31;96073.75;;;3.47;75.06
1832;BME280;1680;48.106;11.708;2023-02-28T13:21:59;96070.28;;;3.70;73.78
1832;BME280;1680;48.106;11.708;2023-02-28T13:24:45;96072.00;;;3.85;70.97
1832;BME280;1680;48.106;11.708;2023-02-28T13:27:32;96071.78;;;4.03;70.99
1832;BME280;1680;48.106;11.708;2023-02-28T13:33:28;96070.69;;;4.28;70.77
1832;BME280;1680;48.106;11.708;2023-02-28T13:36:23;96063.28;;;4.17;68.70
1832;BME280;1680;48.106;11.708;2023-02-28T13:38:54;96068.78;;;4.44;68.21
1832;BME280;1680;48.106;11.708;2023-02-28T13:41:46;96069.78;;;4.66;68.65
1832;BME280;1680;48.106;11.708;2023-02-28T13:44:15;96069.31;;;4.62;67.96
1832;BME280;1680;48.106;11.708;2023-02-28T13:47:21;96068.03;;;4.80;68.08
1832;BME280;1680;48.106;11.708;2023-02-28T13:49:51;96048.00;;;4.44;70.29
1832;BME280;1680;48.106;11.708;2023-02-28T13:52:22;96060.66;;;4.47;71.37
1832;BME280;1680;48.106;11.708;2023-02-28T13:54:56;96072.44;;;4.80;70.96
1832;BME280;1680;48.106;11.708;2023-02-28T13:57:40;96062.72;;;4.74;67.37